Time;durP1;ratioP1;P1;durP2;ratioP2;P2;SDS_P1;SDS_P2;PMS_P1;PMS_P2;Temp;Humidity;BMP_temperature;BMP_pressure;BME280_temperature;BME280_humidity;BME280_pressure;Samples;Min_cycle;Max_cycle;Signal;HPM_P1;HPM_P2
2022/11/01 00:01:18;;;;;;;;;;;;;;;11.97;93.96;100113.31;5080669;28;19920;-71
2022/11/01 00:03:48;;;;;;;;;;;;;;;11.99;93.86;100109.06;5079764;28;19959;-71
2022/11/01 00:06:17;;;;;;;;;;;;;;;11.99;93.94;100113.34;5079946;28;19970;-70
2022/11/01 00:08:45;;;;;;;;;;;;;;;12.00;93.96;100110.75;5079987;28;19925;-71
2022/11/01 00:11:14;;;;;;;;;;;;;;;12.01;93.98;100103.94;5079925;28;19921;-71
2022/11/01 00:13:45;;;;;;;;;;;;;;;12.00;93.86;100113.31;5080248;28;20475;-70
2022/11/01 00:16:13;;;;;;;;;;;;;;;12.01;94.03;100112.47;5080155;28;19974;-71
2022/11/01 00:18:42;;;;;;;;;;;;;;;11.99;94.05;100111.63;5080123;28;20267;-71
2022/11/01 00:21:12;;;;;;;;;;;;;;;11.99;93.78;100121.88;5076079;28;19921;-71
2022/11/01 00:23:40;;;;;;;;;;;;;;;11.99;93.77;100111.63;5076653;28;20011;-71
2022/11/01 00:26:09;;;;;;;;;;;;;;;11.99;93.81;100106.53;5076523;28;19928;-71
2022/11/01 00:28:38;;;;;;;;;;;;;;;11.99;93.70;100115.91;5076550;28;19967;-71
2022/11/01 00:31:06;;;;;;;;;;;;;;;11.99;94.05;100116.75;5076487;28;20341;-70
2022/11/01 00:33:40;;;;;;;;;;;;;;;11.96;93.75;100111.63;5077059;28;19920;-71
2022/11/01 00:36:08;;;;;;;;;;;;;;;11.96;93.92;100105.66;5076376;28;19928;-71
2022/11/01 00:38:38;;;;;;;;;;;;;;;11.95;93.62;100089.44;5076402;28;20396;-70
2022/11/01 00:41:07;;;;;;;;;;;;;;;11.95;93.74;100094.56;5077002;28;19920;-71
2022/11/01 00:43:36;;;;;;;;;;;;;;;11.95;93.78;100104.78;5076284;28;19924;-71
2022/11/01 00:46:04;;;;;;;;;;;;;;;11.96;93.60;100106.50;5076518;28;20301;-71
2022/11/01 00:48:33;;;;;;;;;;;;;;;11.98;94.06;100094.56;5076533;28;19920;-71
2022/11/01 00:51:01;;;;;;;;;;;;;;;11.96;93.46;100086.03;5076398;28;19920;-71
2022/11/01 00:53:29;;;;;;;;;;;;;;;11.96;93.90;100075.81;5076334;28;19924;-71
2022/11/01 00:56:01;;;;;;;;;;;;;;;11.96;93.62;100095.41;5076359;28;19920;-71
2022/11/01 00:58:30;;;;;;;;;;;;;;;11.96;93.87;100092.88;5076012;28;19955;-71
2022/11/01 01:00:58;;;;;;;;;;;;;;;11.94;93.64;100090.31;5076356;28;19975;-71
2022/11/01 01:03:27;;;;;;;;;;;;;;;11.94;93.84;100086.91;5074498;28;19926;-71
2022/11/01 01:05:55;;;;;;;;;;;;;;;11.94;93.86;100076.66;5076208;28;19924;-71
2022/11/01 01:08:24;;;;;;;;;;;;;;;11.91;93.41;100077.50;5074820;28;20374;-71
2022/11/01 01:10:52;;;;;;;;;;;;;;;11.91;93.93;100071.53;5075749;28;19921;-71
2022/11/01 01:13:22;;;;;;;;;;;;;;;11.92;93.79;100074.13;5075873;28;19921;-71
2022/11/01 01:15:51;;;;;;;;;;;;;;;11.94;93.94;100080.09;5076355;28;19920;-71
2022/11/01 01:18:19;;;;;;;;;;;;;;;11.92;93.75;100069.00;5075910;28;20424;-71
2022/11/01 01:20:48;;;;;;;;;;;;;;;11.92;93.54;100063.88;5075555;28;19921;-71
2022/11/01 01:23:16;;;;;;;;;;;;;;;11.88;93.75;100062.16;5075520;28;19920;-71
2022/11/01 01:25:44;;;;;;;;;;;;;;;11.86;93.68;100068.97;5075534;28;19927;-71
2022/11/01 01:28:13;;;;;;;;;;;;;;;11.87;93.76;100065.59;5075369;28;19920;-71
2022/11/01 01:30:42;;;;;;;;;;;;;;;11.85;93.90;100072.38;5075862;28;20374;-70
2022/11/01 01:33:11;;;;;;;;;;;;;;;11.82;93.82;100062.19;5075314;28;19974;-71
2022/11/01 01:35:44;;;;;;;;;;;;;;;11.83;93.58;100057.91;5075359;28;19921;-71
2022/11/01 01:38:12;;;;;;;;;;;;;;;11.82;93.67;100057.06;5075256;28;19927;-71
2022/11/01 01:40:41;;;;;;;;;;;;;;;11.81;93.53;100059.59;5075195;28;20385;-71
2022/11/01 01:43:11;;;;;;;;;;;;;;;11.80;93.38;100053.66;5075125;28;19921;-70
2022/11/01 01:45:41;;;;;;;;;;;;;;;11.76;93.32;100051.94;5075850;28;19924;-71
2022/11/01 01:48:14;;;;;;;;;;;;;;;11.75;93.23;100046.81;5075358;28;19920;-70
2022/11/01 01:50:46;;;;;;;;;;;;;;;11.71;93.43;100043.41;5074993;28;19970;-71
2022/11/01 01:53:17;;;;;;;;;;;;;;;11.71;93.10;100042.56;5074932;28;19970;-71
2022/11/01 01:55:48;;;;;;;;;;;;;;;11.69;93.08;100040.00;5074939;28;19969;-71
2022/11/01 01:58:19;;;;;;;;;;;;;;;11.65;92.77;100034.84;5074870;28;19943;-71
2022/11/01 02:00:47;;;;;;;;;;;;;;;11.60;92.88;100029.72;5074906;28;19920;-71
2022/11/01 02:03:17;;;;;;;;;;;;;;;11.59;92.67;100030.56;5074999;28;20436;-71
2022/11/01 02:05:49;;;;;;;;;;;;;;;11.58;92.92;100026.34;5074702;28;20019;-71
2022/11/01 02:08:25;;;;;;;;;;;;;;;11.59;92.67;100029.75;5075021;28;20001;-71
2022/11/01 02:10:54;;;;;;;;;;;;;;;11.57;92.78;100022.06;5074802;28;19920;-71
2022/11/01 02:13:22;;;;;;;;;;;;;;;11.55;92.83;100026.31;5074618;28;19921;-71
2022/11/01 02:16:01;;;;;;;;;;;;;;;11.52;92.88;100030.59;5074502;28;19962;-70
2022/11/01 02:18:35;;;;;;;;;;;;;;;11.47;92.62;100027.19;5074842;28;19920;-71
2022/11/01 02:21:14;;;;;;;;;;;;;;;11.44;92.33;100033.13;5074444;28;20290;-71
2022/11/01 02:23:54;;;;;;;;;;;;;;;11.44;92.48;100038.25;5074690;28;19920;-71
2022/11/01 02:26:32;;;;;;;;;;;;;;;11.45;92.52;100039.94;5074656;28;20324;-71
2022/11/01 02:29:11;;;;;;;;;;;;;;;11.41;92.51;100033.13;5074705;28;19921;-71
2022/11/01 02:31:41;;;;;;;;;;;;;;;11.36;92.25;100034.81;5074273;28;19952;-71
2022/11/01 02:34:15;;;;;;;;;;;;;;;11.31;92.31;100027.16;5073033;28;19924;-70
2022/11/01 02:36:45;;;;;;;;;;;;;;;11.30;92.34;100027.16;5074572;28;19986;-71
2022/11/01 02:39:20;;;;;;;;;;;;;;;11.26;92.46;100023.72;5074207;28;19926;-71
2022/11/01 02:41:51;;;;;;;;;;;;;;;11.24;92.30;100019.47;5074353;28;19947;-71
2022/11/01 02:44:23;;;;;;;;;;;;;;;11.23;92.31;100022.84;5074091;28;20336;-71
2022/11/01 02:49:33;;;;;;;;;;;;;;;11.17;92.42;100022.84;5074712;28;20022;-71
2022/11/01 02:52:03;;;;;;;;;;;;;;;11.16;92.38;100021.13;5074300;28;19921;-70
2022/11/01 02:54:32;;;;;;;;;;;;;;;11.14;92.36;100017.72;5074094;28;19960;-71
2022/11/01 02:57:05;;;;;;;;;;;;;;;11.12;92.58;100021.97;5074308;28;20401;-71
2022/11/01 02:59:42;;;;;;;;;;;;;;;11.12;92.49;100019.44;5074537;28;20301;-71
2022/11/01 03:02:14;;;;;;;;;;;;;;;11.13;92.56;100021.16;5073870;28;20432;-71
2022/11/01 03:04:44;;;;;;;;;;;;;;;11.10;92.55;100016.03;5073940;28;19927;-71
2022/11/01 03:07:13;;;;;;;;;;;;;;;11.06;92.43;100016.88;5074244;28;19989;-71
2022/11/01 03:09:42;;;;;;;;;;;;;;;11.06;92.54;100024.53;5074170;28;19921;-70
2022/11/01 03:12:15;;;;;;;;;;;;;;;11.05;92.79;100023.69;5072643;28;20259;-71
2022/11/01 03:14:49;;;;;;;;;;;;;;;11.03;92.65;100024.53;5074016;28;20015;-71
2022/11/01 03:17:23;;;;;;;;;;;;;;;11.02;92.63;100020.25;5073803;28;19924;-71
2022/11/01 03:19:58;;;;;;;;;;;;;;;11.01;92.58;100016.88;5074149;28;19966;-70
2022/11/01 03:22:30;;;;;;;;;;;;;;;10.99;92.54;100027.94;5073771;28;19921;-71
2022/11/01 03:25:04;;;;;;;;;;;;;;;10.94;92.61;100017.66;5073677;28;19924;-71
2022/11/01 03:27:34;;;;;;;;;;;;;;;10.91;92.71;100019.38;5073694;28;19973;-71
2022/11/01 03:30:04;;;;;;;;;;;;;;;10.89;92.40;100021.06;5072784;28;20015;-70
2022/11/01 03:32:36;;;;;;;;;;;;;;;10.84;92.58;100028.72;5073664;28;20007;-71
2022/11/01 03:35:07;;;;;;;;;;;;;;;10.83;92.49;100023.59;5073948;28;19920;-71
2022/11/01 03:37:37;;;;;;;;;;;;;;;10.79;92.51;100020.19;5073993;28;19952;-71
2022/11/01 03:40:08;;;;;;;;;;;;;;;10.81;92.40;100020.19;5073669;28;19920;-70
2022/11/01 03:42:38;;;;;;;;;;;;;;;10.82;92.48;100024.47;5073942;28;19970;-71
2022/11/01 03:45:08;;;;;;;;;;;;;;;10.77;92.36;100027.00;5073708;28;19921;-71
2022/11/01 03:47:36;;;;;;;;;;;;;;;10.76;92.38;100022.72;5073534;28;19977;-71
2022/11/01 03:50:13;;;;;;;;;;;;;;;10.73;92.33;100010.78;5073444;28;19928;-71
2022/11/01 03:52:42;;;;;;;;;;;;;;;10.72;92.44;100014.19;5073459;28;19920;-71
2022/11/01 03:55:18;;;;;;;;;;;;;;;10.70;92.34;100015.06;5074678;28;19928;-70
2022/11/01 03:57:46;;;;;;;;;;;;;;;10.69;92.42;100019.31;5077840;28;19955;-71
2022/11/01 04:00:15;;;;;;;;;;;;;;;10.66;92.46;100016.72;5077930;28;19927;-70
2022/11/01 04:02:44;;;;;;;;;;;;;;;10.64;92.51;100015.88;5077023;28;20397;-70
2022/11/01 04:05:14;;;;;;;;;;;;;;;10.63;92.34;100018.41;5076923;28;19920;-70
2022/11/01 04:07:43;;;;;;;;;;;;;;;10.62;92.41;100012.47;5077290;28;20021;-71
2022/11/01 04:10:11;;;;;;;;;;;;;;;10.59;92.37;100017.56;5076897;28;20362;-70
2022/11/01 04:12:40;;;;;;;;;;;;;;;10.58;92.59;100015.81;5076878;28;19926;-71
2022/11/01 04:20:34;;;;;;;;;;;;;;;10.53;92.42;100006.47;5077146;28;19959;-70
2022/11/01 04:23:02;;;;;;;;;;;;;;;10.50;92.75;100007.31;5077123;28;19966;-70
2022/11/01 04:25:32;;;;;;;;;;;;;;;10.51;92.68;100008.16;5076593;28;20010;-70
2022/11/01 04:28:01;;;;;;;;;;;;;;;10.50;92.69;100022.63;5076612;28;19928;-71
2022/11/01 04:30:29;;;;;;;;;;;;;;;10.49;92.90;100014.94;5077120;28;19924;-69
2022/11/01 04:32:57;;;;;;;;;;;;;;;10.46;92.71;100010.66;5076573;28;19927;-70
2022/11/01 04:35:28;;;;;;;;;;;;;;;10.47;92.62;100009.84;5076649;28;19943;-70
2022/11/01 04:37:57;;;;;;;;;;;;;;;10.49;92.56;100005.59;5076722;28;20302;-70
2022/11/01 04:40:26;;;;;;;;;;;;;;;10.49;92.97;99997.06;5076754;28;19921;-71
2022/11/01 04:42:54;;;;;;;;;;;;;;;10.48;92.92;100003.91;5076296;28;19924;-71
2022/11/01 04:45:23;;;;;;;;;;;;;;;10.51;92.93;100003.88;5077128;28;19920;-70
2022/11/01 04:48:00;;;;;;;;;;;;;;;10.54;92.78;100009.00;5076402;28;19920;-70
2022/11/01 04:50:31;;;;;;;;;;;;;;;10.55;92.68;100008.19;5076238;28;19920;-71
2022/11/01 04:52:59;;;;;;;;;;;;;;;10.58;92.76;100020.94;5076424;28;20397;-71
2022/11/01 04:55:29;;;;;;;;;;;;;;;10.60;93.05;100013.31;5075943;28;20019;-71
2022/11/01 04:57:57;;;;;;;;;;;;;;;10.63;93.30;100014.16;5075995;28;19927;-71
2022/11/01 05:00:26;;;;;;;;;;;;;;;10.62;92.87;100015.03;5076291;28;19943;-71
2022/11/01 05:03:00;;;;;;;;;;;;;;;10.63;92.85;100014.16;5075817;28;19920;-70
2022/11/01 05:05:29;;;;;;;;;;;;;;;10.64;93.30;100012.47;5075757;28;20378;-71
2022/11/01 05:08:01;;;;;;;;;;;;;;;10.66;93.05;100013.31;5076169;28;20011;-70
2022/11/01 05:10:31;;;;;;;;;;;;;;;10.67;93.12;100021.00;5076482;28;20471;-70
2022/11/01 05:12:59;;;;;;;;;;;;;;;10.65;92.91;100016.72;5076045;28;20378;-70
2022/11/01 05:15:28;;;;;;;;;;;;;;;10.64;93.26;100015.00;5075640;28;19920;-71
2022/11/01 05:17:57;;;;;;;;;;;;;;;10.63;93.14;100014.16;5075873;28;19920;-70
2022/11/01 05:20:25;;;;;;;;;;;;;;;10.61;93.06;100025.19;5075958;28;19927;-70
2022/11/01 05:22:57;;;;;;;;;;;;;;;10.55;93.05;100023.50;5075582;28;19921;-70
2022/11/01 05:25:27;;;;;;;;;;;;;;;10.54;93.15;100024.31;5075606;28;19920;-70
2022/11/01 05:27:59;;;;;;;;;;;;;;;10.59;92.99;100021.78;5075540;28;20001;-71
2022/11/01 05:30:28;;;;;;;;;;;;;;;10.63;93.20;100018.41;5075402;28;19929;-70
2022/11/01 05:32:57;;;;;;;;;;;;;;;10.65;93.23;100017.56;5075384;28;19927;-70
2022/11/01 05:35:26;;;;;;;;;;;;;;;10.66;92.85;100019.28;5075344;28;20362;-71
2022/11/01 05:37:55;;;;;;;;;;;;;;;10.64;93.11;100027.78;5075206;28;19970;-71
2022/11/01 05:40:24;;;;;;;;;;;;;;;10.63;93.18;100024.38;5075581;28;19920;-71
2022/11/01 05:42:54;;;;;;;;;;;;;;;10.63;93.01;100029.47;5075150;28;19950;-70
2022/11/01 05:45:22;;;;;;;;;;;;;;;10.66;93.06;100032.03;5075401;28;19943;-71
2022/11/01 05:47:50;;;;;;;;;;;;;;;10.68;93.18;100032.91;5075059;28;19928;-71
2022/11/01 05:50:19;;;;;;;;;;;;;;;10.67;93.16;100031.22;5075057;28;19954;-71
2022/11/01 05:52:48;;;;;;;;;;;;;;;10.70;93.13;100038.03;5075284;28;19920;-71
2022/11/01 05:55:17;;;;;;;;;;;;;;;10.71;92.92;100035.47;5075287;28;19966;-71
2022/11/01 05:57:45;;;;;;;;;;;;;;;10.71;93.00;100032.91;5074883;28;19924;-71
2022/11/01 06:00:16;;;;;;;;;;;;;;;10.73;93.02;100026.13;5075087;28;20334;-70
2022/11/01 06:02:45;;;;;;;;;;;;;;;10.72;92.97;100031.22;5074867;28;19948;-70
2022/11/01 06:05:13;;;;;;;;;;;;;;;10.73;92.97;100028.66;5074993;28;20475;-70
2022/11/01 06:07:41;;;;;;;;;;;;;;;10.71;92.75;100035.47;5075291;28;20278;-71
2022/11/01 06:10:10;;;;;;;;;;;;;;;10.72;92.88;100029.50;5074851;28;19924;-70
2022/11/01 06:12:38;;;;;;;;;;;;;;;10.72;92.92;100034.59;5075448;28;19921;-71
2022/11/01 06:15:07;;;;;;;;;;;;;;;10.76;93.05;100043.16;5074414;28;19963;-70
2022/11/01 06:17:36;;;;;;;;;;;;;;;10.74;92.85;100040.59;5073700;28;19921;-70
2022/11/01 06:20:05;;;;;;;;;;;;;;;10.73;92.89;100038.88;5074440;28;19970;-70
2022/11/01 06:22:34;;;;;;;;;;;;;;;10.71;92.57;100040.56;5074666;28;19921;-71
2022/11/01 06:25:03;;;;;;;;;;;;;;;10.71;92.83;100043.13;5074618;28;20271;-71
2022/11/01 06:27:32;;;;;;;;;;;;;;;10.71;92.61;100043.13;5074627;28;19926;-71
2022/11/01 06:30:01;;;;;;;;;;;;;;;10.69;92.41;100049.94;5074901;28;19927;-70
2022/11/01 06:32:29;;;;;;;;;;;;;;;10.71;92.55;100047.38;5074205;28;19921;-71
2022/11/01 06:34:59;;;;;;;;;;;;;;;10.72;92.69;100052.47;5074110;28;19929;-70
2022/11/01 06:37:27;;;;;;;;;;;;;;;10.73;92.65;100056.75;5074438;28;19920;-70
2022/11/01 06:39:55;;;;;;;;;;;;;;;10.74;92.54;100048.25;5074456;28;19921;-71
2022/11/01 06:42:24;;;;;;;;;;;;;;;10.75;92.62;100052.50;5074119;28;19920;-70
2022/11/01 06:44:52;;;;;;;;;;;;;;;10.76;92.50;100066.97;5074009;28;20011;-70
2022/11/01 06:47:20;;;;;;;;;;;;;;;10.76;92.40;100066.13;5074358;28;19931;-70
2022/11/01 06:49:49;;;;;;;;;;;;;;;10.74;92.53;100063.56;5074012;28;19920;-69
2022/11/01 06:52:19;;;;;;;;;;;;;;;10.77;92.44;100063.56;5074596;28;19928;-70
2022/11/01 06:54:47;;;;;;;;;;;;;;;10.80;92.41;100077.22;5073899;28;19920;-70
2022/11/01 06:57:15;;;;;;;;;;;;;;;10.81;92.49;100068.69;5073930;28;19928;-70
2022/11/01 06:59:43;;;;;;;;;;;;;;;10.84;92.47;100071.28;5073956;28;19921;-70
2022/11/01 07:02:12;;;;;;;;;;;;;;;10.86;92.37;100067.88;5073160;28;19920;-70
2022/11/01 07:04:42;;;;;;;;;;;;;;;10.85;92.03;100070.41;5074130;28;19931;-70
2022/11/01 07:07:10;;;;;;;;;;;;;;;10.85;92.23;100076.38;5073686;28;19929;-70
2022/11/01 07:09:40;;;;;;;;;;;;;;;10.89;92.09;100077.25;5073780;28;19920;-70
2022/11/01 07:12:08;;;;;;;;;;;;;;;10.92;92.26;100077.28;5074130;28;19990;-70
2022/11/01 07:14:36;;;;;;;;;;;;;;;10.97;92.31;100070.47;5073670;28;19924;-68
2022/11/01 07:17:05;;;;;;;;;;;;;;;11.01;92.15;100075.63;5073712;28;19966;-69
2022/11/01 07:19:33;;;;;;;;;;;;;;;11.07;92.22;100074.75;5073645;28;20385;-70
2022/11/01 07:22:01;;;;;;;;;;;;;;;11.12;92.33;100080.75;5073755;28;19966;-70
2022/11/01 07:24:30;;;;;;;;;;;;;;;11.14;92.26;100094.38;5074017;28;19920;-70
2022/11/01 07:26:59;;;;;;;;;;;;;;;11.16;92.27;100090.09;5073706;28;20431;-70
2022/11/01 07:29:28;;;;;;;;;;;;;;;11.17;92.18;100086.72;5075621;28;19928;-70
2022/11/01 07:31:56;;;;;;;;;;;;;;;11.20;92.18;100084.19;5078338;28;19974;-70
2022/11/01 07:34:25;;;;;;;;;;;;;;;11.21;92.39;100078.22;5077939;28;19920;-70
2022/11/01 07:36:53;;;;;;;;;;;;;;;11.23;92.12;100089.28;5076281;28;19950;-70
2022/11/01 07:39:22;;;;;;;;;;;;;;;11.23;92.13;100086.72;5077509;28;19920;-70
2022/11/01 07:41:53;;;;;;;;;;;;;;;11.21;91.95;100070.53;5077667;28;19924;-70
2022/11/01 07:44:23;;;;;;;;;;;;;;;11.23;92.10;100085.03;5077705;28;19928;-70
2022/11/01 07:46:51;;;;;;;;;;;;;;;11.26;91.89;100079.06;5077479;28;19925;-70
2022/11/01 07:49:19;;;;;;;;;;;;;;;11.26;91.77;100068.84;5077268;28;20321;-69
2022/11/01 07:51:48;;;;;;;;;;;;;;;11.28;91.91;100073.13;5077109;28;19927;-70
2022/11/01 07:54:16;;;;;;;;;;;;;;;11.30;91.78;100075.69;5077194;28;20382;-69
2022/11/01 07:56:44;;;;;;;;;;;;;;;11.27;91.70;100076.53;5077196;28;19920;-70
2022/11/01 07:59:13;;;;;;;;;;;;;;;11.29;91.59;100086.75;5077332;28;19920;-70
2022/11/01 08:01:42;;;;;;;;;;;;;;;11.26;91.47;100076.53;5077097;28;19924;-69
2022/11/01 08:04:11;;;;;;;;;;;;;;;11.27;91.35;100076.53;5076951;28;19962;-71
2022/11/01 08:06:39;;;;;;;;;;;;;;;11.30;91.02;100080.81;5077243;28;19928;-70
2022/11/01 08:09:08;;;;;;;;;;;;;;;11.33;90.96;100078.25;5077166;28;19974;-70
2022/11/01 08:11:36;;;;;;;;;;;;;;;11.32;90.79;100068.88;5077058;28;20389;-70
2022/11/01 08:14:05;;;;;;;;;;;;;;;11.36;90.80;100066.34;5077067;28;20378;-70
2022/11/01 08:16:39;;;;;;;;;;;;;;;11.41;90.78;100063.78;5076687;28;19920;-69
2022/11/01 08:19:10;;;;;;;;;;;;;;;11.43;90.25;100067.19;5077031;28;19920;-69
2022/11/01 08:21:38;;;;;;;;;;;;;;;11.45;90.26;100061.25;5077201;28;19981;-70
2022/11/01 08:24:07;;;;;;;;;;;;;;;11.47;90.44;100068.91;5076974;28;19924;-70
2022/11/01 08:26:35;;;;;;;;;;;;;;;11.49;90.03;100067.22;5076922;28;19920;-70
2022/11/01 08:29:03;;;;;;;;;;;;;;;11.55;90.07;100072.34;5076629;28;19927;-69
2022/11/01 08:31:32;;;;;;;;;;;;;;;11.60;90.21;100065.53;5076545;28;19930;-70
2022/11/01 08:34:00;;;;;;;;;;;;;;;11.65;90.00;100079.16;5076424;28;19938;-70
2022/11/01 08:36:30;;;;;;;;;;;;;;;11.72;90.21;100074.94;5076355;28;19921;-70
2022/11/01 08:38:58;;;;;;;;;;;;;;;11.74;90.20;100079.22;5076363;28;20015;-70
2022/11/01 08:41:27;;;;;;;;;;;;;;;11.77;89.83;100081.78;5078339;28;20479;-71
2022/11/01 08:43:57;;;;;;;;;;;;;;;11.80;89.38;100079.22;5087144;28;20007;-71
2022/11/01 08:46:26;;;;;;;;;;;;;;;11.82;89.84;100077.53;5086832;28;19951;-70
2022/11/01 08:48:58;;;;;;;;;;;;;;;11.85;89.58;100077.50;5090512;28;19920;-70
2022/11/01 08:51:26;;;;;;;;;;;;;;;11.87;89.65;100080.06;5085321;28;19952;-71
2022/11/01 08:53:56;;;;;;;;;;;;;;;11.89;89.58;100084.34;5081737;28;19928;-69
2022/11/01 08:56:26;;;;;;;;;;;;;;;11.92;89.36;100084.34;5081673;28;19920;-70
2022/11/01 08:58:55;;;;;;;;;;;;;;;11.94;89.59;100089.47;5076505;28;19924;-70
2022/11/01 09:01:25;;;;;;;;;;;;;;;11.94;89.41;100092.00;5075863;28;19920;-68
2022/11/01 09:03:56;;;;;;;;;;;;;;;11.99;89.36;100086.06;5074842;28;19921;-69
2022/11/01 09:06:24;;;;;;;;;;;;;;;12.01;89.28;100081.78;5075947;28;19959;-70
2022/11/01 09:08:53;;;;;;;;;;;;;;;12.05;88.93;100080.06;5076298;28;20361;-70
2022/11/01 09:11:23;;;;;;;;;;;;;;;12.09;88.94;100092.03;5078563;28;19955;-70
2022/11/01 09:13:53;;;;;;;;;;;;;;;12.10;88.93;100088.59;5077803;28;19920;-69
2022/11/01 09:16:21;;;;;;;;;;;;;;;12.14;88.77;100084.34;5075514;28;19928;-69
2022/11/01 09:18:50;;;;;;;;;;;;;;;12.15;88.81;100081.78;5075564;28;19920;-69
2022/11/01 09:21:18;;;;;;;;;;;;;;;12.24;88.43;100092.00;5075788;28;20313;-70
2022/11/01 09:23:46;;;;;;;;;;;;;;;12.31;88.33;100085.19;5075507;28;19960;-69
2022/11/01 09:26:14;;;;;;;;;;;;;;;12.31;88.37;100082.63;5075430;28;19926;-69
2022/11/01 09:28:44;;;;;;;;;;;;;;;12.33;88.10;100078.34;5075382;28;19924;-69
2022/11/01 09:31:13;;;;;;;;;;;;;;;12.35;88.13;100074.06;5075156;28;19924;-69
2022/11/01 09:33:49;;;;;;;;;;;;;;;12.38;87.79;100069.78;5075291;28;20010;-69
2022/11/01 09:36:17;;;;;;;;;;;;;;;12.39;87.61;100070.66;5075150;28;19920;-70
2022/11/01 09:38:45;;;;;;;;;;;;;;;12.41;87.00;100071.50;5075457;28;19981;-69
2022/11/01 09:41:24;;;;;;;;;;;;;;;12.43;87.13;100067.25;5075172;28;19920;-69
2022/11/01 09:43:55;;;;;;;;;;;;;;;12.48;86.97;100070.63;5075096;28;20031;-69
2022/11/01 09:46:26;;;;;;;;;;;;;;;12.52;87.00;100072.34;5075386;28;19920;-69
2022/11/01 09:48:56;;;;;;;;;;;;;;;12.53;86.41;100068.91;5074987;28;20010;-69
2022/11/01 09:51:25;;;;;;;;;;;;;;;12.52;86.21;100082.59;5075191;28;19966;-69
2022/11/01 09:53:54;;;;;;;;;;;;;;;12.51;86.03;100085.97;5075144;28;20393;-69
2022/11/01 09:56:26;;;;;;;;;;;;;;;12.50;86.02;100084.28;5075300;28;19928;-69
2022/11/01 09:59:05;;;;;;;;;;;;;;;12.48;86.01;100085.97;5075189;28;19928;-69
2022/11/01 10:01:41;;;;;;;;;;;;;;;12.49;85.76;100086.00;5075276;28;19924;-69
2022/11/01 10:04:20;;;;;;;;;;;;;;;12.49;85.57;100082.56;5074794;28;20389;-69
2022/11/01 10:06:52;;;;;;;;;;;;;;;12.52;85.66;100077.47;5074710;28;19921;-69
2022/11/01 10:09:27;;;;;;;;;;;;;;;12.57;85.49;100080.88;5074834;28;19927;-69
2022/11/01 10:12:16;;;;;;;;;;;;;;;12.59;85.97;100080.00;5084913;28;19920;-69
2022/11/01 10:18:56;;;;;;;;;;;;;;;12.68;85.86;100069.72;5092755;28;20018;-69
2022/11/01 10:25:29;;;;;;;;;;;;;;;12.70;85.66;100072.28;5094458;28;19920;-69
2022/11/01 10:28:10;;;;;;;;;;;;;;;12.71;85.27;100079.13;5094475;28;20002;-69
2022/11/01 10:30:42;;;;;;;;;;;;;;;12.72;85.16;100068.84;5094467;28;20073;-68
2022/11/01 10:33:20;;;;;;;;;;;;;;;12.76;85.50;100077.41;5094543;28;19920;-69
2022/11/01 10:35:52;;;;;;;;;;;;;;;12.83;85.50;100073.09;5094226;28;19959;-69
2022/11/01 10:38:26;;;;;;;;;;;;;;;12.88;85.69;100079.06;5094100;28;19920;-69
2022/11/01 10:41:20;;;;;;;;;;;;;;;12.89;85.51;100079.03;5094087;28;19920;-69
2022/11/01 10:43:49;;;;;;;;;;;;;;;12.92;85.37;100079.03;5093960;28;19920;-69
2022/11/01 10:46:21;;;;;;;;;;;;;;;12.97;84.95;100074.75;5094238;28;19920;-69
2022/11/01 10:48:52;;;;;;;;;;;;;;;13.04;85.24;100078.97;5093591;28;20437;-69
2022/11/01 10:51:22;;;;;;;;;;;;;;;13.12;85.27;100076.44;5094183;28;19927;-69
2022/11/01 10:53:58;;;;;;;;;;;;;;;13.18;84.74;100077.25;5094449;28;19920;-69
2022/11/01 10:56:30;;;;;;;;;;;;;;;13.21;84.82;100077.22;5094532;28;19965;-69
2022/11/01 10:59:00;;;;;;;;;;;;;;;13.23;84.71;100080.63;5094440;28;19920;-69
2022/11/01 11:01:36;;;;;;;;;;;;;;;13.27;85.04;100072.06;5094445;28;19920;-69
2022/11/01 11:04:09;;;;;;;;;;;;;;;13.27;84.88;100074.63;5093621;28;19920;-69
2022/11/01 11:06:39;;;;;;;;;;;;;;;13.27;84.76;100076.31;5094497;28;19928;-69
2022/11/01 11:09:17;;;;;;;;;;;;;;;13.21;84.58;100077.22;5094366;28;19920;-69
2022/11/01 11:11:47;;;;;;;;;;;;;;;13.19;84.29;100073.84;5094675;28;19969;-69
2022/11/01 11:14:18;;;;;;;;;;;;;;;13.19;84.24;100072.97;5094499;28;19959;-69
2022/11/01 11:16:50;;;;;;;;;;;;;;;13.18;83.95;100073.81;5094010;28;19920;-69
2022/11/01 11:19:23;;;;;;;;;;;;;;;13.12;83.70;100077.28;5093883;28;20011;-69
2022/11/01 11:21:53;;;;;;;;;;;;;;;13.11;83.94;100074.72;5093953;28;19920;-69
2022/11/01 11:24:23;;;;;;;;;;;;;;;13.16;84.11;100072.97;5094339;28;19927;-69
2022/11/01 11:26:53;;;;;;;;;;;;;;;13.16;84.11;100063.59;5093898;28;19926;-69
2022/11/01 11:29:31;;;;;;;;;;;;;;;13.15;84.07;100072.13;5094204;28;19943;-70
2022/11/01 11:32:01;;;;;;;;;;;;;;;13.13;83.90;100058.47;5093857;28;19920;-70
2022/11/01 11:34:31;;;;;;;;;;;;;;;13.09;83.54;100056.78;5094106;28;19927;-71
2022/11/01 11:37:00;;;;;;;;;;;;;;;13.04;83.71;100055.94;5094017;28;19920;-72
2022/11/01 11:39:30;;;;;;;;;;;;;;;12.97;83.79;100059.38;5094068;28;19924;-70
2022/11/01 11:42:10;;;;;;;;;;;;;;;12.95;83.86;100055.13;5094616;28;19920;-69
2022/11/01 11:44:40;;;;;;;;;;;;;;;12.97;83.81;100051.69;5094015;28;19966;-70
2022/11/01 11:47:19;;;;;;;;;;;;;;;12.96;83.63;100049.97;5094096;28;19927;-71
2022/11/01 11:49:52;;;;;;;;;;;;;;;12.97;83.98;100043.13;5094010;28;19971;-70
2022/11/01 11:52:22;;;;;;;;;;;;;;;13.01;84.04;100040.56;5093990;28;19959;-70
2022/11/01 11:54:56;;;;;;;;;;;;;;;12.99;83.93;100044.84;5093993;28;19920;-71
2022/11/01 11:57:25;;;;;;;;;;;;;;;12.98;83.75;100042.31;5093470;28;19931;-70
2022/11/01 11:59:55;;;;;;;;;;;;;;;13.03;84.32;100046.53;5093605;28;19924;-71
2022/11/01 12:02:24;;;;;;;;;;;;;;;13.07;84.48;100043.13;5093113;28;19920;-71
2022/11/01 12:04:56;;;;;;;;;;;;;;;13.08;84.23;100042.25;5093593;28;20357;-70
2022/11/01 12:07:31;;;;;;;;;;;;;;;13.08;84.42;100042.25;5094096;28;20023;-70
2022/11/01 12:10:02;;;;;;;;;;;;;;;13.09;84.39;100051.66;5092560;28;19920;-70
2022/11/01 12:12:31;;;;;;;;;;;;;;;13.09;84.23;100051.66;5093562;28;20019;-70
2022/11/01 12:15:02;;;;;;;;;;;;;;;13.11;84.31;100043.97;5093657;28;19923;-70
2022/11/01 12:17:32;;;;;;;;;;;;;;;13.12;84.42;100045.69;5097216;28;19920;-71
2022/11/01 12:20:11;;;;;;;;;;;;;;;13.08;84.17;100042.25;5097097;28;19967;-71
2022/11/01 12:22:43;;;;;;;;;;;;;;;13.08;83.93;100044.81;5097040;28;19924;-71
2022/11/01 12:25:15;;;;;;;;;;;;;;;13.09;83.94;100046.53;5097432;28;19926;-72
2022/11/01 12:27:48;;;;;;;;;;;;;;;13.05;84.00;100044.78;5097005;28;19920;-71
2022/11/01 12:30:19;;;;;;;;;;;;;;;13.04;83.64;100043.13;5097062;28;19920;-73
2022/11/01 12:32:50;;;;;;;;;;;;;;;13.02;83.58;100033.72;5096580;28;19960;-71
2022/11/01 12:35:24;;;;;;;;;;;;;;;13.01;83.65;100032.88;5097037;28;20277;-71
2022/11/01 12:38:00;;;;;;;;;;;;;;;13.02;83.39;100037.16;5096980;28;20374;-70
2022/11/01 12:40:30;;;;;;;;;;;;;;;13.06;83.58;100031.16;5096660;28;19977;-71
2022/11/01 12:43:01;;;;;;;;;;;;;;;13.01;83.58;100027.75;5096991;28;19926;-71
2022/11/01 12:45:32;;;;;;;;;;;;;;;12.98;83.51;100030.31;5096545;28;19973;-72
2022/11/01 12:48:04;;;;;;;;;;;;;;;13.01;83.50;100027.75;5096222;28;19920;-72
2022/11/01 12:50:37;;;;;;;;;;;;;;;13.01;83.37;100030.31;5096924;28;19989;-71
2022/11/01 12:53:10;;;;;;;;;;;;;;;13.02;83.49;100037.16;5096308;28;19931;-71
2022/11/01 12:55:39;;;;;;;;;;;;;;;13.06;83.18;100040.56;5096245;28;19924;-72
2022/11/01 12:58:12;;;;;;;;;;;;;;;13.06;83.42;100043.97;5096805;28;19924;-71
2022/11/01 13:00:51;;;;;;;;;;;;;;;13.09;83.00;100049.09;5096743;28;20335;-71
2022/11/01 13:03:26;;;;;;;;;;;;;;;13.10;83.13;100043.09;5095818;28;20308;-71
2022/11/01 13:05:57;;;;;;;;;;;;;;;13.08;82.93;100049.94;5095918;28;19958;-71
2022/11/01 13:08:32;;;;;;;;;;;;;;;13.11;82.99;100054.22;5096205;28;19924;-71